INFORMACIÓN METAR y TAF
METAR FOR LGSK
ADDS - METARS form results

(2121 UTC 02 June 2020)
Data provider http://aviationweather.gov/metar/data/
 
Forecast for: LGSK (SKIATHOS ISLAND , GR)
Text: TAF LGSK 022000Z 0221/0306 VRB05KT 9999 SCT020
Forecast period: 2100 UTC 02 June 2020 to 0600 UTC 03 June 2020
Forecast type: FROM: standard forecast or significant change
Winds: variable direction winds at 6 MPH (5 knots; 2.6 m/s)
Visibility: 6 or more miles 10+ km)
Ceiling: at least 12,000 feet AGL
Clouds: scattered clouds at 2000 feet AGL
Weather: no significant weather forecast for this period
Text: BECMG 0221/0223 33016KT
Forecast period: 2100 UTC 02 June 2020 to 0600 UTC 03 June 2020
Forecast type: BECOMING: Conditions expected to become as follows by 2300 UTC 02 June 2020
Winds: from the NNW (330 degrees) at 18 MPH (16 knots; 8.2 m/s)
Visibility: 6 or more miles 10+ km)
Ceiling: at least 12,000 feet AGL
Clouds: scattered clouds at 2000 feet AGL
Weather: no significant weather forecast for this period

MAPA DE AEROPUERTO

INFORMACIÓN DE PISTA
Pista 02 Longitud 5341 ft Ancho 98 ft
Elevación 9 ft Umbral desplazado 190 ft Rumbo de pista 19
Pista 20 Longitud 5341 ft Ancho 98 ft
Elevación 54 ft Umbral desplazado 0 ft Rumbo de pista 199

FRECUANCIAS DEL AEROPUERTO
Tipo A/G Nombre SKIATHOS R Frecuencia 563.7 MHZ
Tipo APP Nombre SKIATHOS A Frecuencia 126.05 MHZ
Tipo TWR Nombre SKIATHOS T Frecuencia 126.05 MHZ

RADIO AYUDAS DEL AEROPUERTO
Tipo NDB Nombre Skiathos Frecuencia 326 KHZ